createdAt,value
2018-12-12T00:00:21.316Z,87.60
2018-12-12T00:02:51.400Z,87.60
2018-12-12T00:05:21.456Z,87.40
2018-12-12T00:07:49.558Z,87.70
2018-12-12T00:10:19.891Z,87.80
2018-12-12T00:12:49.284Z,88.00
2018-12-12T00:15:18.474Z,88.20
2018-12-12T00:17:46.731Z,88.20
2018-12-12T00:20:14.851Z,88.10
2018-12-12T00:22:42.902Z,88.20
2018-12-12T00:25:10.972Z,88.20
2018-12-12T00:27:39.023Z,88.10
2018-12-12T00:30:07.188Z,88.00
2018-12-12T00:32:35.270Z,88.00
2018-12-12T00:35:03.613Z,88.10
2018-12-12T00:37:31.717Z,88.10
2018-12-12T00:39:59.779Z,88.10
2018-12-12T00:42:27.892Z,88.30
2018-12-12T00:44:55.987Z,88.70
2018-12-12T00:47:24.080Z,88.50
2018-12-12T00:49:52.168Z,88.50
2018-12-12T00:52:20.223Z,88.40
2018-12-12T00:54:48.504Z,88.20
2018-12-12T00:57:16.679Z,88.20
2018-12-12T00:59:44.795Z,88.20
2018-12-12T01:02:12.928Z,88.10
2018-12-12T01:04:41.490Z,88.20
2018-12-12T01:07:10.108Z,88.70
2018-12-12T01:12:43.931Z,89.00
2018-12-12T01:15:13.601Z,89.10
2018-12-12T01:17:41.873Z,88.70
2018-12-12T01:20:15.390Z,88.70
2018-12-12T01:22:49.972Z,88.50
2018-12-12T01:25:24.238Z,88.50
2018-12-12T01:30:48.733Z,88.40
2018-12-12T01:33:22.269Z,88.40
2018-12-12T01:35:51.494Z,88.40
2018-12-12T01:38:19.835Z,88.30
2018-12-12T01:40:47.896Z,88.40
2018-12-12T01:43:16.016Z,88.50
2018-12-12T01:45:44.112Z,88.40
2018-12-12T01:48:12.205Z,88.40
2018-12-12T01:50:40.363Z,88.50
2018-12-12T01:53:08.576Z,88.70
2018-12-12T01:55:36.655Z,88.50
2018-12-12T01:58:04.747Z,88.50
2018-12-12T02:00:32.956Z,88.50
2018-12-12T02:03:01.106Z,88.50
2018-12-12T02:05:29.410Z,88.50
2018-12-12T02:07:57.526Z,89.30
2018-12-12T02:10:25.587Z,89.00
2018-12-12T02:12:59.332Z,88.70
2018-12-12T02:15:27.413Z,88.60
2018-12-12T02:17:55.500Z,88.50
2018-12-12T02:20:23.601Z,89.00
2018-12-12T02:22:51.732Z,88.60
2018-12-12T02:25:19.899Z,88.80
2018-12-12T02:27:47.988Z,88.90
2018-12-12T02:30:16.151Z,88.90
2018-12-12T02:32:44.263Z,89.30
2018-12-12T02:35:12.492Z,89.20
2018-12-12T02:37:40.599Z,89.00
2018-12-12T02:40:08.729Z,89.60
2018-12-12T02:42:36.964Z,88.80
2018-12-12T02:45:05.202Z,88.70
2018-12-12T02:47:33.369Z,88.70
2018-12-12T02:50:01.507Z,88.90
2018-12-12T02:52:29.738Z,88.70
2018-12-12T02:54:57.887Z,88.80
2018-12-12T02:57:26.091Z,89.00
2018-12-12T02:59:54.447Z,88.90
2018-12-12T03:02:22.677Z,89.70
2018-12-12T03:04:50.761Z,89.10
2018-12-12T03:07:19.171Z,89.10
2018-12-12T03:09:47.276Z,89.40
2018-12-12T03:12:15.419Z,89.40
2018-12-12T03:14:43.512Z,89.40
2018-12-12T03:17:11.624Z,89.20
2018-12-12T03:19:39.791Z,89.30
2018-12-12T03:22:12.133Z,89.10
2018-12-12T03:24:40.229Z,88.90
2018-12-12T03:27:08.325Z,89.10
2018-12-12T03:29:36.383Z,89.10
2018-12-12T03:32:04.502Z,89.10
2018-12-12T03:34:32.586Z,88.80
2018-12-12T03:37:00.767Z,88.80
2018-12-12T03:39:28.902Z,88.90
2018-12-12T03:41:57.007Z,88.80
2018-12-12T03:47:13.895Z,89.70
2018-12-12T03:49:42.029Z,88.70
2018-12-12T03:52:10.132Z,88.90
2018-12-12T03:54:38.201Z,89.00
2018-12-12T03:57:06.311Z,88.70
2018-12-12T03:59:34.533Z,88.80
2018-12-12T04:02:02.979Z,88.60
2018-12-12T04:04:31.078Z,88.90
2018-12-12T04:06:59.241Z,89.10
2018-12-12T04:09:27.320Z,89.30
2018-12-12T04:11:55.426Z,89.40
2018-12-12T04:14:23.628Z,89.10
2018-12-12T04:16:51.712Z,89.00
2018-12-12T04:19:19.941Z,89.20
2018-12-12T04:21:49.998Z,89.50
2018-12-12T04:24:18.201Z,90.10
2018-12-12T04:26:46.312Z,90.10
2018-12-12T04:29:14.467Z,90.20
2018-12-12T04:31:42.706Z,90.20
2018-12-12T04:34:10.839Z,90.40
2018-12-12T04:36:38.927Z,90.40
2018-12-12T04:39:07.527Z,90.50
2018-12-12T04:41:35.640Z,90.50
2018-12-12T04:44:03.794Z,90.50
2018-12-12T04:46:31.940Z,90.50
2018-12-12T04:49:00.225Z,90.40
2018-12-12T04:51:28.348Z,90.50
2018-12-12T04:53:56.484Z,90.60
2018-12-12T04:56:24.625Z,90.60
2018-12-12T04:58:53.624Z,90.80
2018-12-12T05:01:21.698Z,90.80
2018-12-12T05:03:49.760Z,90.80
2018-12-12T05:06:17.943Z,90.80
2018-12-12T05:08:46.308Z,90.90
2018-12-12T05:11:14.376Z,91.00
2018-12-12T05:13:42.497Z,91.00
2018-12-12T05:16:10.602Z,91.00
2018-12-12T05:18:38.676Z,91.00
2018-12-12T05:21:06.755Z,91.00
2018-12-12T05:23:34.921Z,91.00
2018-12-12T05:26:02.991Z,91.10
2018-12-12T05:28:31.177Z,90.90
2018-12-12T05:31:00.184Z,91.20
2018-12-12T05:33:29.026Z,91.10
2018-12-12T05:39:00.455Z,91.10
2018-12-12T05:41:30.165Z,91.10
2018-12-12T05:44:00.140Z,91.10
2018-12-12T05:46:29.172Z,91.10
2018-12-12T05:48:58.578Z,91.00
2018-12-12T05:51:29.586Z,91.10
2018-12-12T05:54:02.634Z,90.80
2018-12-12T05:56:34.262Z,90.60
2018-12-12T05:59:03.464Z,90.60
2018-12-12T06:01:31.893Z,90.60
2018-12-12T06:04:00.092Z,90.80
2018-12-12T06:06:28.162Z,90.80
2018-12-12T06:08:56.330Z,90.90
2018-12-12T06:11:24.448Z,90.90
2018-12-12T06:13:52.509Z,90.80
2018-12-12T06:16:20.608Z,90.60
2018-12-12T06:18:48.680Z,90.50
2018-12-12T06:21:16.757Z,90.60
2018-12-12T06:23:44.943Z,90.60
2018-12-12T06:26:13.036Z,90.50
2018-12-12T06:28:41.173Z,90.50
2018-12-12T06:31:09.315Z,90.50
2018-12-12T06:33:37.394Z,90.40
2018-12-12T06:36:05.516Z,90.20
2018-12-12T06:38:33.592Z,90.20
2018-12-12T06:41:01.659Z,90.10
2018-12-12T06:43:29.721Z,90.30
2018-12-12T06:45:57.810Z,90.30
2018-12-12T06:48:25.981Z,90.30
2018-12-12T06:50:54.031Z,90.50
2018-12-12T06:53:22.111Z,90.50
2018-12-12T06:55:50.351Z,90.50
2018-12-12T06:58:18.428Z,90.30
2018-12-12T07:00:46.499Z,90.20
2018-12-12T07:03:14.570Z,90.20
2018-12-12T07:05:42.798Z,90.00
2018-12-12T07:08:10.888Z,89.90
2018-12-12T07:10:38.958Z,90.00
2018-12-12T07:13:07.037Z,90.00
2018-12-12T07:15:35.105Z,89.60
2018-12-12T07:18:03.175Z,89.50
2018-12-12T07:20:31.245Z,89.50
2018-12-12T07:22:59.291Z,89.80
2018-12-12T07:25:27.372Z,90.00
2018-12-12T07:27:55.432Z,90.10
2018-12-12T07:30:23.512Z,90.20
2018-12-12T07:32:51.591Z,90.30
2018-12-12T07:35:19.676Z,90.50
2018-12-12T07:37:47.984Z,90.40
2018-12-12T07:40:16.044Z,90.40
2018-12-12T07:42:46.203Z,90.50
2018-12-12T07:45:31.168Z,90.50
2018-12-12T07:48:01.678Z,90.50
2018-12-12T07:50:35.494Z,90.40
2018-12-12T07:53:26.721Z,90.40
2018-12-12T07:55:54.792Z,90.40
2018-12-12T07:58:23.032Z,90.30
2018-12-12T08:00:51.119Z,90.50
2018-12-12T08:03:19.234Z,90.50
2018-12-12T08:05:47.299Z,90.50
2018-12-12T08:08:15.424Z,90.60
2018-12-12T08:10:43.484Z,90.50
2018-12-12T08:13:11.599Z,90.40
2018-12-12T08:15:39.669Z,90.40
2018-12-12T08:18:07.741Z,90.30
2018-12-12T08:20:35.803Z,90.30
2018-12-12T08:23:03.976Z,90.30
2018-12-12T08:25:32.324Z,90.10
2018-12-12T08:28:00.368Z,90.00
2018-12-12T08:30:28.434Z,89.90
2018-12-12T08:32:56.691Z,90.10
2018-12-12T08:35:24.743Z,90.20
2018-12-12T08:37:52.853Z,89.80
2018-12-12T08:40:20.983Z,90.00
2018-12-12T08:42:50.028Z,90.00
2018-12-12T08:45:18.143Z,90.00
2018-12-12T08:47:46.199Z,90.30
2018-12-12T08:50:14.265Z,90.10
2018-12-12T08:52:42.332Z,89.80
2018-12-12T08:55:10.416Z,89.60
2018-12-12T08:57:38.475Z,89.20
2018-12-12T09:00:06.672Z,89.60
2018-12-12T09:02:34.838Z,89.10
2018-12-12T09:05:02.991Z,89.10
2018-12-12T09:07:31.056Z,88.80
2018-12-12T09:09:59.417Z,88.70
2018-12-12T09:12:28.805Z,88.70
2018-12-12T09:14:56.971Z,88.80
2018-12-12T09:17:26.932Z,88.40
2018-12-12T09:19:55.855Z,88.50
2018-12-12T09:22:24.723Z,88.50
2018-12-12T09:24:54.601Z,88.70
2018-12-12T09:27:23.476Z,87.80
2018-12-12T09:29:54.312Z,88.30
2018-12-12T09:32:25.190Z,88.50
2018-12-12T09:34:56.037Z,87.60
2018-12-12T09:37:24.906Z,87.20
2018-12-12T09:39:53.796Z,86.30
2018-12-12T09:42:22.682Z,86.70
2018-12-12T09:44:51.554Z,86.80
2018-12-12T09:47:20.720Z,86.50
2018-12-12T09:49:49.592Z,86.00
2018-12-12T09:52:20.441Z,86.30
2018-12-12T09:54:51.281Z,85.70
2018-12-12T09:57:20.158Z,85.10
2018-12-12T09:59:49.040Z,84.90
2018-12-12T10:02:17.903Z,84.00
2018-12-12T10:04:46.781Z,84.90
2018-12-12T10:07:15.671Z,84.10
2018-12-12T10:09:44.608Z,83.60
2018-12-12T10:12:13.504Z,82.60
2018-12-12T10:14:42.439Z,82.20
2018-12-12T10:17:11.356Z,81.50
2018-12-12T10:19:40.309Z,82.50
2018-12-12T10:22:09.360Z,81.90
2018-12-12T10:24:38.580Z,81.90
2018-12-12T10:27:08.235Z,82.00
2018-12-12T10:29:38.365Z,82.00
2018-12-12T10:32:07.262Z,82.50
2018-12-12T10:34:36.164Z,85.20
2018-12-12T10:37:05.060Z,84.10
2018-12-12T10:39:34.430Z,82.80
2018-12-12T10:42:03.430Z,79.50
2018-12-12T10:44:33.412Z,76.40
2018-12-12T10:47:02.369Z,75.30
2018-12-12T10:49:31.226Z,74.80
2018-12-12T10:52:01.107Z,74.40
2018-12-12T10:54:30.988Z,74.10
2018-12-12T10:56:59.855Z,74.80
2018-12-12T10:59:28.764Z,76.70
2018-12-12T11:02:02.924Z,78.00
2018-12-12T11:04:31.800Z,76.00
2018-12-12T11:07:00.738Z,73.60
2018-12-12T11:09:29.700Z,72.00
2018-12-12T11:11:58.580Z,72.40
2018-12-12T11:14:27.593Z,71.90
2018-12-12T11:16:56.506Z,72.30
2018-12-12T11:19:25.476Z,72.30
2018-12-12T11:21:54.429Z,73.00
2018-12-12T11:24:23.325Z,73.00
2018-12-12T11:26:52.184Z,74.00
2018-12-12T11:29:21.124Z,73.40
2018-12-12T11:31:50.027Z,73.00
2018-12-12T11:34:18.911Z,73.90
2018-12-12T11:36:47.805Z,74.40
2018-12-12T11:39:16.828Z,73.20
2018-12-12T11:41:45.663Z,73.10
2018-12-12T11:44:14.719Z,71.60
2018-12-12T11:46:43.627Z,69.50
2018-12-12T11:49:12.533Z,66.40
2018-12-12T11:51:41.469Z,64.70
2018-12-12T11:54:10.488Z,64.60
2018-12-12T11:56:39.506Z,63.40
2018-12-12T11:59:08.481Z,61.90
2018-12-12T12:01:37.574Z,61.20
2018-12-12T12:04:06.421Z,61.10
2018-12-12T12:06:36.415Z,60.30
2018-12-12T12:09:07.675Z,59.50
2018-12-12T12:11:36.599Z,58.10
2018-12-12T12:14:07.453Z,58.00
2018-12-12T12:16:36.361Z,56.80
2018-12-12T12:19:05.215Z,56.20
2018-12-12T12:21:34.082Z,55.90
2018-12-12T12:24:02.968Z,55.40
2018-12-12T12:26:32.044Z,54.80
2018-12-12T12:29:01.238Z,54.30
2018-12-12T12:31:30.297Z,53.40
2018-12-12T12:34:03.247Z,53.00
2018-12-12T12:36:30.253Z,52.30
2018-12-12T12:38:59.105Z,51.00
2018-12-12T12:41:28.061Z,50.70
2018-12-12T12:43:56.933Z,51.50
2018-12-12T12:46:25.846Z,49.70
2018-12-12T12:48:54.725Z,49.90
2018-12-12T12:51:23.593Z,49.40
2018-12-12T12:53:52.476Z,48.70
2018-12-12T12:56:21.418Z,48.20
2018-12-12T12:58:50.374Z,47.30
2018-12-12T13:01:19.244Z,46.70
2018-12-12T13:03:48.141Z,46.50
2018-12-12T13:06:17.050Z,46.00
2018-12-12T13:08:45.933Z,45.10
2018-12-12T13:11:15.062Z,45.30
2018-12-12T13:13:44.101Z,45.20
2018-12-12T13:16:13.049Z,44.70
2018-12-12T13:18:41.936Z,43.60
2018-12-12T13:21:10.823Z,43.90
2018-12-12T13:23:39.720Z,44.40
2018-12-12T13:26:08.709Z,43.90
2018-12-12T13:28:37.576Z,43.10
2018-12-12T13:31:06.464Z,43.90
2018-12-12T13:33:35.382Z,44.50
2018-12-12T13:36:04.369Z,46.00
2018-12-12T13:38:33.276Z,46.90
2018-12-12T13:41:02.183Z,47.80
2018-12-12T13:43:31.056Z,49.10
2018-12-12T13:45:59.929Z,49.70
2018-12-12T13:48:28.892Z,50.80
2018-12-12T13:50:57.778Z,51.80
2018-12-12T13:53:26.757Z,51.70
2018-12-12T13:55:55.720Z,52.70
2018-12-12T13:58:24.600Z,53.70
2018-12-12T14:00:53.457Z,55.80
2018-12-12T14:03:22.527Z,56.40
2018-12-12T14:05:51.444Z,56.80
2018-12-12T14:08:20.405Z,57.40
2018-12-12T14:10:49.343Z,57.60
2018-12-12T14:13:18.468Z,58.40
2018-12-12T14:15:47.332Z,59.20
2018-12-12T14:18:16.188Z,60.20
2018-12-12T14:20:45.096Z,61.30
2018-12-12T14:23:14.030Z,61.70
2018-12-12T14:25:42.882Z,62.60
2018-12-12T14:28:11.767Z,63.50
2018-12-12T14:30:40.809Z,63.10
2018-12-12T14:33:09.625Z,64.10
2018-12-12T14:35:38.501Z,64.20
2018-12-12T14:38:07.359Z,64.10
2018-12-12T14:40:36.285Z,64.50
2018-12-12T14:43:05.291Z,64.90
2018-12-12T14:45:34.211Z,65.40
2018-12-12T14:48:03.204Z,65.70
2018-12-12T14:50:32.375Z,66.10
2018-12-12T14:53:01.246Z,66.30
2018-12-12T14:55:30.188Z,66.50
2018-12-12T14:57:59.180Z,66.70
2018-12-12T15:00:28.043Z,67.10
2018-12-12T15:02:57.042Z,67.30
2018-12-12T15:05:26.076Z,67.80
2018-12-12T15:07:54.986Z,68.10
2018-12-12T15:10:23.859Z,68.30
2018-12-12T15:12:52.858Z,68.70
2018-12-12T15:15:22.712Z,69.20
2018-12-12T15:17:51.625Z,69.50
2018-12-12T15:20:20.564Z,69.70
2018-12-12T15:22:49.508Z,70.00
2018-12-12T15:25:18.705Z,70.00
2018-12-12T15:27:47.562Z,70.70
2018-12-12T15:30:16.663Z,71.10
2018-12-12T15:32:45.526Z,71.10
2018-12-12T15:35:14.699Z,71.10
2018-12-12T15:37:43.648Z,71.30
2018-12-12T15:40:12.855Z,71.30
2018-12-12T15:42:41.775Z,71.60
2018-12-12T15:45:10.912Z,72.00
2018-12-12T15:47:39.956Z,72.60
2018-12-12T15:50:09.128Z,72.80
2018-12-12T15:52:38.306Z,72.90
2018-12-12T15:55:07.335Z,73.00
2018-12-12T15:57:36.211Z,73.40
2018-12-12T16:00:05.962Z,73.50
2018-12-12T16:02:34.845Z,73.40
2018-12-12T16:05:04.249Z,73.40
2018-12-12T16:07:33.152Z,73.60
2018-12-12T16:10:02.637Z,74.00
2018-12-12T16:12:32.604Z,74.70
2018-12-12T16:15:01.587Z,73.90
2018-12-12T16:17:30.589Z,74.30
2018-12-12T16:19:59.475Z,74.70
2018-12-12T16:22:28.464Z,74.80
2018-12-12T16:24:57.409Z,75.20
2018-12-12T16:27:26.379Z,75.30
2018-12-12T16:29:55.344Z,75.60
2018-12-12T16:32:24.416Z,75.40
2018-12-12T16:34:55.869Z,75.50
2018-12-12T16:37:24.144Z,75.50
2018-12-12T16:39:53.096Z,75.80
2018-12-12T16:42:22.103Z,75.90
2018-12-12T16:44:53.107Z,76.10
2018-12-12T16:47:38.983Z,76.10
2018-12-12T16:50:08.328Z,76.40
2018-12-12T16:52:37.388Z,75.90
2018-12-12T16:55:06.453Z,75.90
2018-12-12T16:57:35.480Z,75.50
2018-12-12T17:00:06.981Z,76.10
2018-12-12T17:02:35.995Z,75.90
2018-12-12T17:05:05.477Z,75.80
2018-12-12T17:07:34.465Z,75.80
2018-12-12T17:10:03.929Z,76.20
2018-12-12T17:12:32.976Z,76.30
2018-12-12T17:15:02.236Z,76.50
2018-12-12T17:17:31.208Z,76.20
2018-12-12T17:20:00.188Z,76.20
2018-12-12T17:22:29.071Z,77.30
2018-12-12T17:24:57.992Z,76.50
2018-12-12T17:27:27.079Z,76.40
2018-12-12T17:29:56.045Z,76.60
2018-12-12T17:32:25.263Z,76.20
2018-12-12T17:34:54.257Z,76.00
2018-12-12T17:37:23.239Z,75.80
2018-12-12T17:39:52.248Z,75.80
2018-12-12T17:42:21.238Z,76.30
2018-12-12T17:44:50.132Z,76.40
2018-12-12T17:47:19.028Z,76.40
2018-12-12T17:49:47.929Z,76.40
2018-12-12T17:52:16.950Z,76.80
2018-12-12T17:54:45.871Z,77.30
2018-12-12T17:57:14.893Z,77.40
2018-12-12T17:59:43.843Z,77.10
2018-12-12T18:02:12.866Z,76.70
2018-12-12T18:04:47.541Z,77.00
2018-12-12T18:07:16.561Z,77.00
2018-12-12T18:09:45.595Z,77.60
2018-12-12T18:12:14.580Z,77.20
2018-12-12T18:14:43.522Z,77.10
2018-12-12T18:17:14.387Z,76.80
2018-12-12T18:19:43.401Z,76.70
2018-12-12T18:22:18.641Z,76.50
2018-12-12T18:24:49.581Z,76.40
2018-12-12T18:27:30.275Z,76.20
2018-12-12T18:30:01.190Z,76.80
2018-12-12T18:32:40.598Z,77.00
2018-12-12T18:35:31.928Z,76.50
2018-12-12T18:38:00.877Z,76.40
2018-12-12T18:40:29.963Z,76.10
2018-12-12T18:43:00.794Z,76.50
2018-12-12T18:45:33.251Z,76.50
2018-12-12T18:48:06.000Z,77.00
2018-12-12T18:50:42.960Z,77.50
2018-12-12T18:53:34.284Z,77.10
2018-12-12T18:59:17.057Z,77.30
2018-12-12T19:01:46.069Z,77.80
2018-12-12T19:04:16.074Z,77.40
2018-12-12T19:06:45.948Z,77.80
2018-12-12T19:09:22.830Z,77.60
2018-12-12T19:12:08.178Z,77.70
2018-12-12T19:14:45.330Z,78.50
2018-12-12T19:17:29.345Z,78.30
2018-12-12T19:20:05.525Z,78.20
2018-12-12T19:22:40.641Z,78.00
2018-12-12T19:25:25.688Z,78.10
2018-12-12T19:31:01.310Z,78.30
2018-12-12T19:33:49.993Z,79.20
2018-12-12T19:36:35.190Z,78.90
2018-12-12T19:39:10.640Z,78.50
2018-12-12T19:48:03.020Z,78.20
2018-12-12T19:50:32.230Z,78.60
2018-12-12T20:02:40.160Z,79.00
2018-12-12T20:08:20.501Z,79.20
2018-12-12T20:10:55.582Z,79.80
2018-12-12T20:13:40.423Z,79.50
2018-12-12T20:16:21.709Z,79.50
2018-12-12T20:18:50.583Z,79.10
2018-12-12T20:21:19.502Z,79.30
2018-12-12T20:23:48.452Z,79.30
2018-12-12T20:26:17.351Z,79.30
2018-12-12T20:28:46.293Z,80.30
2018-12-12T20:31:15.249Z,79.90
2018-12-12T20:36:43.632Z,80.60
2018-12-12T20:39:12.561Z,80.60
2018-12-12T20:41:41.464Z,80.60
2018-12-12T20:44:10.356Z,80.50
2018-12-12T20:46:39.228Z,80.70
2018-12-12T20:49:08.102Z,80.30
2018-12-12T20:51:36.997Z,80.40
2018-12-12T20:54:07.059Z,80.40
2018-12-12T20:56:35.938Z,80.20
2018-12-12T20:59:04.899Z,80.10
2018-12-12T21:01:33.771Z,80.20
2018-12-12T21:04:02.683Z,80.10
2018-12-12T21:06:31.713Z,80.10
2018-12-12T21:09:00.684Z,79.80
2018-12-12T21:11:29.699Z,79.80
2018-12-12T21:13:58.584Z,80.10
2018-12-12T21:16:30.533Z,79.70
2018-12-12T21:19:16.118Z,80.20
2018-12-12T21:21:45.043Z,79.80
2018-12-12T21:24:13.987Z,79.80
2018-12-12T21:26:42.912Z,79.80
2018-12-12T21:29:11.819Z,79.70
2018-12-12T21:31:40.685Z,79.80
2018-12-12T21:34:12.792Z,80.00
2018-12-12T21:36:42.754Z,79.70
2018-12-12T21:39:11.734Z,80.10
2018-12-12T21:41:40.742Z,80.10
2018-12-12T21:44:09.666Z,80.40
2018-12-12T21:46:38.713Z,81.00
2018-12-12T21:49:07.676Z,80.10
2018-12-12T21:51:36.559Z,79.50
2018-12-12T21:54:05.656Z,79.30
2018-12-12T21:56:34.923Z,79.30
2018-12-12T21:59:03.866Z,80.20
2018-12-12T22:01:32.785Z,79.50
2018-12-12T22:04:01.672Z,79.70
2018-12-12T22:06:30.792Z,79.90
2018-12-12T22:08:59.794Z,79.60
2018-12-12T22:11:28.714Z,79.80
2018-12-12T22:13:57.659Z,79.50
2018-12-12T22:16:26.707Z,79.20
2018-12-12T22:18:55.784Z,78.90
2018-12-12T22:21:24.687Z,79.30
2018-12-12T22:23:53.789Z,79.50
2018-12-12T22:26:22.937Z,79.30
2018-12-12T22:28:52.575Z,79.10
2018-12-12T22:31:22.527Z,78.80
2018-12-12T22:33:52.505Z,79.10
2018-12-12T22:36:21.484Z,78.90
2018-12-12T22:38:50.367Z,78.80
2018-12-12T22:41:19.769Z,79.60
2018-12-12T22:43:48.669Z,79.40
2018-12-12T22:46:17.577Z,79.20
2018-12-12T22:48:46.468Z,78.90
2018-12-12T22:51:15.352Z,79.00
2018-12-12T22:53:44.303Z,78.30
2018-12-12T22:56:13.202Z,77.60
2018-12-12T22:58:42.239Z,77.60
2018-12-12T23:01:15.364Z,76.60
2018-12-12T23:03:46.267Z,76.20
2018-12-12T23:06:20.384Z,77.00
2018-12-12T23:08:46.127Z,77.10
2018-12-12T23:11:15.092Z,76.70
2018-12-12T23:13:44.214Z,77.30
2018-12-12T23:16:13.365Z,77.00
2018-12-12T23:18:42.287Z,76.70
2018-12-12T23:21:11.166Z,76.40
2018-12-12T23:23:40.279Z,76.50
2018-12-12T23:26:09.172Z,77.00
2018-12-12T23:28:38.347Z,76.50
2018-12-12T23:31:07.349Z,76.40
2018-12-12T23:33:36.222Z,76.80
2018-12-12T23:36:05.110Z,76.70
2018-12-12T23:38:34.000Z,76.40
2018-12-12T23:41:02.993Z,76.80
2018-12-12T23:43:32.004Z,76.80
2018-12-12T23:46:01.196Z,77.10
2018-12-12T23:48:30.239Z,75.40
2018-12-12T23:50:59.185Z,74.30
2018-12-12T23:53:28.067Z,74.80
2018-12-12T23:55:57.079Z,75.30
2018-12-12T23:58:26.081Z,75.20
